ADDS METAR Data INFO
IDs: Format: Raw Decoded Include TAF

Data at: 0458 UTC 16 Aug 2018

METAR for:PAAK (Atka Arpt, AK, US)
Text:PAAK 160456Z AUTO 08004KT 10SM CLR 10/06 A3012 RMK AO2 SLP201 T01000056 PNO $
Temperature: 10.0°C ( 50°F)
Dewpoint: 5.6°C ( 42°F) [RH = 74%]
Pressure (altimeter):30.12 inches Hg (1020.1 mb) [Sea level pressure: 1020.1 mb]
Winds:from the E (80 degrees) at 5 MPH (4 knots; 2.1 m/s)
Visibility:10 or more sm (16+ km)
Ceiling:at least 12,000 feet AGL
Clouds:sky clear below 12,000 feet AGL
QC Flag:automated observation with no human augmentation; SOME DATA ABOVE MAY BE INACCURATE!!!"$" is an indication the sensor requires maintenance.
Text:PAAK 160356Z AUTO 27008KT 10SM CLR 12/05 A3013 RMK AO2 SLP205 T01170050 PNO $
Temperature: 11.7°C ( 53°F)
Dewpoint: 5.0°C ( 41°F) [RH = 63%]
Pressure (altimeter):30.13 inches Hg (1020.4 mb) [Sea level pressure: 1020.5 mb]
Winds:from the W (270 degrees) at 9 MPH (8 knots; 4.1 m/s)
Visibility:10 or more sm (16+ km)
Ceiling:at least 12,000 feet AGL
Clouds:sky clear below 12,000 feet AGL
QC Flag:automated observation with no human augmentation; SOME DATA ABOVE MAY BE INACCURATE!!!"$" is an indication the sensor requires maintenance.
Text:PAAK 160256Z AUTO 29007KT 10SM CLR 12/05 A3015 RMK AO2 SLP210 6//// T01170050 56015 PNO $
Temperature: 11.7°C ( 53°F)
Dewpoint: 5.0°C ( 41°F) [RH = 63%]
Pressure (altimeter):30.15 inches Hg (1021.1 mb) [Sea level pressure: 1021.0 mb]
Winds:from the WNW (290 degrees) at 8 MPH (7 knots; 3.6 m/s)
Visibility:10 or more sm (16+ km)
Ceiling:at least 12,000 feet AGL
Clouds:sky clear below 12,000 feet AGL
QC Flag:automated observation with no human augmentation; SOME DATA ABOVE MAY BE INACCURATE!!!"$" is an indication the sensor requires maintenance.
Text:PAAK 160156Z AUTO 28008KT 10SM CLR 12/05 A3016 RMK AO2 SLP214 T01170050 PNO $
Temperature: 11.7°C ( 53°F)
Dewpoint: 5.0°C ( 41°F) [RH = 63%]
Pressure (altimeter):30.16 inches Hg (1021.4 mb) [Sea level pressure: 1021.4 mb]
Winds:from the W (280 degrees) at 9 MPH (8 knots; 4.1 m/s)
Visibility:10 or more sm (16+ km)
Ceiling:at least 12,000 feet AGL
Clouds:sky clear below 12,000 feet AGL
QC Flag:automated observation with no human augmentation; SOME DATA ABOVE MAY BE INACCURATE!!!"$" is an indication the sensor requires maintenance.
Text:PAAK 160056Z AUTO 27009KT 10SM CLR 11/06 A3017 RMK AO2 SLP218 T01060056 PNO $
Temperature: 10.6°C ( 51°F)
Dewpoint: 5.6°C ( 42°F) [RH = 71%]
Pressure (altimeter):30.17 inches Hg (1021.8 mb) [Sea level pressure: 1021.8 mb]
Winds:from the W (270 degrees) at 10 MPH (9 knots; 4.6 m/s)
Visibility:10 or more sm (16+ km)
Ceiling:at least 12,000 feet AGL
Clouds:sky clear below 12,000 feet AGL
QC Flag:automated observation with no human augmentation; SOME DATA ABOVE MAY BE INACCURATE!!!"$" is an indication the sensor requires maintenance.
Text:PAAK 152356Z AUTO 27008KT 10SM BKN046 11/07 A3019 RMK AO2 SLP224 6//// T01060067 10117 20083 58009 PNO $
Temperature: 10.6°C ( 51°F)
Dewpoint: 6.7°C ( 44°F) [RH = 77%]
Pressure (altimeter):30.19 inches Hg (1022.4 mb) [Sea level pressure: 1022.4 mb]
Winds:from the W (270 degrees) at 9 MPH (8 knots; 4.1 m/s)
Visibility:10 or more sm (16+ km)
Ceiling:4600 feet AGL
Clouds: broken clouds at 4600 feet AGL
QC Flag:automated observation with no human augmentation; SOME DATA ABOVE MAY BE INACCURATE!!!"$" is an indication the sensor requires maintenance.
Text:PAAK 152256Z AUTO 28009KT 10SM FEW039 BKN046 11/07 A3021 RMK AO2 SLP231 T01060067 PNO $
Temperature: 10.6°C ( 51°F)
Dewpoint: 6.7°C ( 44°F) [RH = 77%]
Pressure (altimeter):30.21 inches Hg (1023.1 mb) [Sea level pressure: 1023.1 mb]
Winds:from the W (280 degrees) at 10 MPH (9 knots; 4.6 m/s)
Visibility:10 or more sm (16+ km)
Ceiling:4600 feet AGL
Clouds: few clouds at 3900 feet AGL, broken clouds at 4600 feet AGL
QC Flag:automated observation with no human augmentation; SOME DATA ABOVE MAY BE INACCURATE!!!"$" is an indication the sensor requires maintenance.
Text:PAAK 152156Z AUTO 28011KT 10SM SCT044 11/07 A3021 RMK AO2 SLP231 T01060072 PNO $
Temperature: 10.6°C ( 51°F)
Dewpoint: 7.2°C ( 45°F) [RH = 79%]
Pressure (altimeter):30.21 inches Hg (1023.1 mb) [Sea level pressure: 1023.1 mb]
Winds:from the W (280 degrees) at 13 MPH (11 knots; 5.7 m/s)
Visibility:10 or more sm (16+ km)
Ceiling:at least 12,000 feet AGL
Clouds: scattered clouds at 4400 feet AGL
QC Flag:automated observation with no human augmentation; SOME DATA ABOVE MAY BE INACCURATE!!!"$" is an indication the sensor requires maintenance.
Text:PAAK 152056Z AUTO 27009KT 10SM FEW035 OVC044 11/07 A3021 RMK AO2 SLP233 6//// T01060067 57004 PNO $
Temperature: 10.6°C ( 51°F)
Dewpoint: 6.7°C ( 44°F) [RH = 77%]
Pressure (altimeter):30.21 inches Hg (1023.1 mb) [Sea level pressure: 1023.3 mb]
Winds:from the W (270 degrees) at 10 MPH (9 knots; 4.6 m/s)
Visibility:10 or more sm (16+ km)
Ceiling:4400 feet AGL
Clouds: few clouds at 3500 feet AGL, overcast cloud deck at 4400 feet AGL
QC Flag:automated observation with no human augmentation; SOME DATA ABOVE MAY BE INACCURATE!!!"$" is an indication the sensor requires maintenance.
Text:PAAK 151956Z AUTO 27008KT 10SM SCT013 10/07 A3022 RMK AO2 SLP234 T01000067 PNO $
Temperature: 10.0°C ( 50°F)
Dewpoint: 6.7°C ( 44°F) [RH = 80%]
Pressure (altimeter):30.22 inches Hg (1023.5 mb) [Sea level pressure: 1023.4 mb]
Winds:from the W (270 degrees) at 9 MPH (8 knots; 4.1 m/s)
Visibility:10 or more sm (16+ km)
Ceiling:at least 12,000 feet AGL
Clouds: scattered clouds at 1300 feet AGL
QC Flag:automated observation with no human augmentation; SOME DATA ABOVE MAY BE INACCURATE!!!"$" is an indication the sensor requires maintenance.
Text:PAAK 151856Z AUTO 28008KT 10SM SCT024 BKN035 BKN042 09/07 A3022 RMK AO2 SLP235 T00940067 PNO $
Temperature: 9.4°C ( 49°F)
Dewpoint: 6.7°C ( 44°F) [RH = 83%]
Pressure (altimeter):30.22 inches Hg (1023.5 mb) [Sea level pressure: 1023.5 mb]
Winds:from the W (280 degrees) at 9 MPH (8 knots; 4.1 m/s)
Visibility:10 or more sm (16+ km)
Ceiling:3500 feet AGL
Clouds: scattered clouds at 2400 feet AGL, broken clouds at 3500 feet AGL, broken clouds at 4200 feet AGL
QC Flag:automated observation with no human augmentation; SOME DATA ABOVE MAY BE INACCURATE!!!"$" is an indication the sensor requires maintenance.
Text:PAAK 151756Z AUTO 28006KT 10SM CLR 08/07 A3023 RMK AO2 SLP237 6//// T00830067 10089 20072 55001 PNO $
Temperature: 8.3°C ( 47°F)
Dewpoint: 6.7°C ( 44°F) [RH = 90%]
Pressure (altimeter):30.23 inches Hg (1023.8 mb) [Sea level pressure: 1023.7 mb]
Winds:from the W (280 degrees) at 7 MPH (6 knots; 3.1 m/s)
Visibility:10 or more sm (16+ km)
Ceiling:at least 12,000 feet AGL
Clouds:sky clear below 12,000 feet AGL
QC Flag:automated observation with no human augmentation; SOME DATA ABOVE MAY BE INACCURATE!!!"$" is an indication the sensor requires maintenance.